Time;durP1;ratioP1;P1;durP2;ratioP2;P2;SDS_P1;SDS_P2;PMS_P1;PMS_P2;Temp;Humidity;BMP_temperature;BMP_pressure;BME280_temperature;BME280_humidity;BME280_pressure;Samples;Min_cycle;Max_cycle;Signal;HPM_P1;HPM_P2
2024/03/14 00:00:05;;;;;;;6.90;4.20;;;11.20;99.90;;;;;;4961807;28;20026;-78
2024/03/14 00:02:32;;;;;;;10.23;4.38;;;11.20;99.90;;;;;;4974506;28;20037;-77
2024/03/14 00:04:58;;;;;;;5.43;3.38;;;11.20;99.90;;;;;;4984225;28;20072;-77
2024/03/14 00:07:24;;;;;;;6.68;3.65;;;11.20;99.90;;;;;;4982893;28;20038;-78
2024/03/14 00:09:49;;;;;;;4.80;3.88;;;11.20;99.90;;;;;;4978743;28;20483;-77
2024/03/14 00:12:17;;;;;;;6.03;4.15;;;11.20;99.90;;;;;;4981389;28;20499;-77
2024/03/14 00:14:50;;;;;;;6.53;3.95;;;11.20;99.90;;;;;;4948264;28;20035;-76
2024/03/14 00:17:18;;;;;;;5.13;4.00;;;11.20;99.90;;;;;;4960572;28;20080;-76
2024/03/14 00:19:45;;;;;;;5.72;3.90;;;11.20;99.90;;;;;;4964208;28;20826;-76
2024/03/14 00:22:11;;;;;;;6.95;4.45;;;11.20;99.90;;;;;;4967959;28;20031;-76
2024/03/14 00:24:37;;;;;;;6.28;4.65;;;11.20;99.90;;;;;;4969896;28;20057;-78
2024/03/14 00:27:03;;;;;;;6.18;4.22;;;11.20;99.90;;;;;;4983086;28;20027;-76
2024/03/14 00:29:30;;;;;;;5.95;3.97;;;11.20;99.90;;;;;;4970324;28;20122;-76
2024/03/14 00:31:56;;;;;;;8.23;4.72;;;11.20;99.90;;;;;;4984695;28;20042;-76
2024/03/14 00:34:22;;;;;;;6.28;3.63;;;11.20;99.90;;;;;;4951508;28;20038;-77
2024/03/14 00:36:48;;;;;;;7.03;4.35;;;11.20;99.90;;;;;;4975255;28;20035;-76
2024/03/14 00:39:15;;;;;;;8.25;4.72;;;11.10;99.90;;;;;;4993383;28;20540;-76
2024/03/14 00:41:40;;;;;;;8.05;4.15;;;11.20;99.90;;;;;;4991306;28;20037;-77
2024/03/14 00:44:06;;;;;;;6.38;4.72;;;11.20;99.90;;;;;;5008378;28;20068;-77
2024/03/14 00:46:33;;;;;;;5.93;3.08;;;11.20;99.90;;;;;;5006621;28;20030;-76
2024/03/14 00:48:59;;;;;;;7.07;4.53;;;11.20;99.90;;;;;;4990370;28;20057;-76
2024/03/14 00:51:25;;;;;;;5.82;4.40;;;11.20;99.90;;;;;;5006948;28;20132;-76
2024/03/14 00:53:51;;;;;;;8.38;4.43;;;11.20;99.90;;;;;;5008260;28;20048;-76
2024/03/14 00:56:17;;;;;;;5.10;3.33;;;11.20;99.90;;;;;;5005201;28;20030;-76
2024/03/14 00:58:42;;;;;;;3.83;2.75;;;11.20;99.90;;;;;;4975072;28;20041;-76
2024/03/14 01:01:08;;;;;;;5.18;3.83;;;11.20;99.90;;;;;;4971855;28;20038;-76
2024/03/14 01:03:35;;;;;;;7.80;4.70;;;11.20;99.90;;;;;;4987667;28;20035;-76
2024/03/14 01:06:01;;;;;;;6.50;5.13;;;11.20;99.90;;;;;;4984404;28;20038;-76
2024/03/14 01:08:27;;;;;;;8.25;5.10;;;11.20;99.90;;;;;;4952133;28;20399;-76
2024/03/14 01:10:52;;;;;;;8.77;5.70;;;11.20;99.90;;;;;;4987500;28;20092;-76
2024/03/14 01:13:19;;;;;;;8.25;5.45;;;11.20;99.90;;;;;;4969064;28;20042;-77
2024/03/14 01:15:44;;;;;;;8.40;4.07;;;11.20;99.90;;;;;;4971870;28;20042;-77
2024/03/14 01:18:10;;;;;;;8.43;4.68;;;11.20;99.90;;;;;;4979191;28;20424;-77
2024/03/14 01:20:38;;;;;;;6.20;4.30;;;11.20;99.90;;;;;;4967930;28;20034;-77
2024/03/14 01:23:07;;;;;;;8.25;4.50;;;11.20;99.90;;;;;;4953471;28;20042;-77
2024/03/14 01:25:34;;;;;;;7.95;5.50;;;11.20;99.90;;;;;;5002929;28;20579;-79
2024/03/14 01:27:59;;;;;;;6.40;4.38;;;11.20;99.90;;;;;;4992080;28;21365;-77
2024/03/14 01:30:25;;;;;;;7.90;5.82;;;11.20;99.90;;;;;;5010115;28;20030;-77
2024/03/14 01:32:51;;;;;;;7.35;4.65;;;11.20;99.90;;;;;;5007301;28;20052;-77
2024/03/14 01:35:17;;;;;;;6.20;4.55;;;11.20;99.90;;;;;;4988120;28;20034;-78
2024/03/14 01:37:43;;;;;;;8.50;4.78;;;11.20;99.90;;;;;;4991585;28;20458;-77
2024/03/14 01:40:12;;;;;;;6.35;4.53;;;11.20;99.90;;;;;;4966917;28;20030;-77
2024/03/14 01:42:43;;;;;;;8.90;5.45;;;11.20;99.90;;;;;;4979563;28;20088;-77
2024/03/14 01:45:15;;;;;;;8.85;5.57;;;11.10;99.90;;;;;;4984246;28;20026;-77
2024/03/14 01:47:42;;;;;;;5.57;4.63;;;11.10;99.90;;;;;;4966391;28;20040;-77
2024/03/14 01:50:08;;;;;;;9.25;4.30;;;11.10;99.90;;;;;;4978354;28;20601;-78
2024/03/14 01:52:36;;;;;;;4.55;3.60;;;11.10;99.90;;;;;;4964066;28;20100;-78
2024/03/14 01:55:08;;;;;;;5.90;4.43;;;11.10;99.90;;;;;;4956155;28;20666;-79
2024/03/14 01:57:34;;;;;;;8.00;5.10;;;11.10;99.90;;;;;;4962605;28;20397;-77
2024/03/14 02:00:00;;;;;;;6.20;4.82;;;11.00;99.90;;;;;;4967002;28;20030;-77
2024/03/14 02:02:25;;;;;;;9.77;5.75;;;11.00;99.90;;;;;;4968911;28;20038;-77
2024/03/14 02:04:59;;;;;;;6.88;4.47;;;11.00;99.90;;;;;;4968239;28;20038;-77
2024/03/14 02:07:26;;;;;;;10.13;6.07;;;11.00;99.90;;;;;;4962568;28;20095;-77
2024/03/14 02:09:52;;;;;;;7.30;4.75;;;10.90;99.90;;;;;;4986421;28;20026;-77
2024/03/14 02:12:18;;;;;;;9.68;5.03;;;10.90;99.90;;;;;;4971428;28;20044;-77
2024/03/14 02:14:44;;;;;;;7.85;4.45;;;10.90;99.90;;;;;;4966342;28;21068;-77
2024/03/14 02:17:10;;;;;;;8.25;5.00;;;10.90;99.90;;;;;;4985290;28;20023;-78
2024/03/14 02:19:38;;;;;;;7.25;4.95;;;10.90;99.90;;;;;;4952635;28;20088;-77
2024/03/14 02:22:03;;;;;;;7.35;4.95;;;10.90;99.90;;;;;;4984811;28;20022;-77
2024/03/14 02:24:29;;;;;;;7.45;3.00;;;10.90;99.90;;;;;;4977904;28;20050;-77
2024/03/14 02:26:55;;;;;;;7.65;5.22;;;10.80;99.90;;;;;;4984449;28;20049;-77
2024/03/14 02:29:21;;;;;;;7.22;4.55;;;10.70;99.90;;;;;;4970122;28;20404;-77
2024/03/14 02:31:51;;;;;;;9.38;4.43;;;10.70;99.90;;;;;;4966281;28;20038;-78
2024/03/14 02:34:16;;;;;;;8.77;5.32;;;10.70;99.90;;;;;;4984302;28;20038;-77
2024/03/14 02:36:44;;;;;;;7.00;4.63;;;10.60;99.90;;;;;;4967745;28;20512;-77
2024/03/14 02:39:10;;;;;;;5.18;3.10;;;10.60;99.90;;;;;;4951470;28;20061;-77
2024/03/14 02:41:35;;;;;;;5.60;3.90;;;10.60;99.90;;;;;;4965963;28;20026;-77
2024/03/14 02:44:14;;;;;;;8.95;5.00;;;10.60;99.90;;;;;;4951434;28;20537;-77
2024/03/14 02:46:40;;;;;;;6.50;4.45;;;10.60;99.90;;;;;;4989862;28;20035;-77
2024/03/14 02:49:06;;;;;;;8.18;4.60;;;10.60;99.90;;;;;;4972741;28;20381;-77
2024/03/14 02:51:31;;;;;;;6.47;4.53;;;10.50;99.90;;;;;;4968894;28;20033;-77
2024/03/14 02:53:57;;;;;;;4.32;3.60;;;10.50;99.90;;;;;;4979118;28;20125;-77
2024/03/14 02:56:22;;;;;;;7.57;4.65;;;10.50;99.90;;;;;;4984205;28;20062;-77
2024/03/14 02:58:49;;;;;;;5.30;3.78;;;10.50;99.90;;;;;;4982016;28;20120;-78
2024/03/14 03:01:14;;;;;;;6.00;3.97;;;10.40;99.90;;;;;;4982186;28;20027;-77
2024/03/14 03:03:41;;;;;;;10.38;6.18;;;10.40;99.90;;;;;;4968709;28;20403;-77
2024/03/14 03:06:10;;;;;;;10.00;4.45;;;10.30;99.90;;;;;;4979424;28;20410;-77
2024/03/14 03:08:37;;;;;;;7.00;4.30;;;10.30;99.90;;;;;;4953809;28;20031;-77
2024/03/14 03:11:02;;;;;;;7.38;4.07;;;10.30;99.90;;;;;;4966671;28;20554;-78
2024/03/14 03:13:28;;;;;;;6.75;4.53;;;10.30;99.90;;;;;;4983140;28;20038;-77
2024/03/14 03:15:54;;;;;;;8.25;4.28;;;10.30;99.90;;;;;;4962010;28;20038;-78
2024/03/14 03:18:20;;;;;;;7.05;4.22;;;10.30;99.90;;;;;;4963924;28;20041;-77
2024/03/14 03:20:46;;;;;;;7.05;4.50;;;10.20;99.90;;;;;;4966872;28;20041;-79
2024/03/14 03:23:12;;;;;;;4.78;3.67;;;10.20;99.90;;;;;;4972772;28;20038;-77
2024/03/14 03:25:38;;;;;;;8.18;4.35;;;10.20;99.90;;;;;;4967308;28;20035;-77
2024/03/14 03:28:04;;;;;;;7.65;4.82;;;10.10;99.90;;;;;;4950918;28;20039;-78
2024/03/14 03:30:30;;;;;;;5.85;4.03;;;10.10;99.90;;;;;;4960782;28;20468;-77
2024/03/14 03:32:55;;;;;;;5.68;4.00;;;10.10;99.90;;;;;;4978799;28;20038;-77
2024/03/14 03:35:21;;;;;;;8.35;4.20;;;10.10;99.90;;;;;;4966357;28;20042;-79
2024/03/14 03:37:47;;;;;;;6.93;4.53;;;10.10;99.90;;;;;;4971996;28;20502;-77
2024/03/14 03:40:15;;;;;;;9.98;5.40;;;10.10;99.90;;;;;;4969017;28;20034;-77
2024/03/14 03:42:45;;;;;;;6.55;4.00;;;10.00;99.90;;;;;;4968861;28;20522;-77
2024/03/14 03:45:12;;;;;;;5.20;4.00;;;10.00;99.90;;;;;;4966825;28;20491;-77
2024/03/14 03:47:39;;;;;;;6.05;4.55;;;10.10;99.90;;;;;;4985256;28;20039;-77
2024/03/14 03:50:09;;;;;;;5.18;3.47;;;10.00;99.90;;;;;;4983400;28;20057;-78
2024/03/14 03:52:41;;;;;;;7.03;3.58;;;9.90;99.90;;;;;;4970672;28;21673;-78
2024/03/14 03:55:07;;;;;;;9.55;4.47;;;9.90;99.90;;;;;;4968725;28;20037;-77
2024/03/14 03:57:33;;;;;;;7.03;3.83;;;9.90;99.90;;;;;;4970539;28;20031;-78
2024/03/14 03:59:59;;;;;;;6.47;4.72;;;9.90;99.90;;;;;;4970056;28;20045;-78
2024/03/14 04:02:26;;;;;;;7.30;3.45;;;9.90;99.90;;;;;;4982555;28;20038;-77
2024/03/14 04:04:56;;;;;;;8.43;4.75;;;9.90;99.90;;;;;;4944281;28;20023;-78
2024/03/14 04:07:34;;;;;;;6.22;3.22;;;9.80;99.90;;;;;;4970045;28;20037;-77
2024/03/14 04:10:00;;;;;;;6.68;3.70;;;9.80;99.90;;;;;;4982923;28;20543;-78
2024/03/14 04:12:26;;;;;;;8.70;4.30;;;9.70;99.90;;;;;;4965756;28;20176;-78
2024/03/14 04:14:52;;;;;;;5.50;4.10;;;9.70;99.90;;;;;;4968636;28;20027;-77
2024/03/14 04:17:18;;;;;;;7.75;4.28;;;9.70;99.90;;;;;;4972320;28;20035;-77
2024/03/14 04:19:45;;;;;;;6.93;4.30;;;9.70;99.90;;;;;;4958595;28;20035;-78
2024/03/14 04:22:11;;;;;;;8.93;5.22;;;9.70;99.90;;;;;;4966764;28;20034;-77
2024/03/14 04:24:37;;;;;;;4.78;3.85;;;9.70;99.90;;;;;;4968944;28;20026;-77
2024/03/14 04:27:06;;;;;;;7.78;3.85;;;9.70;99.90;;;;;;4984411;28;20039;-77
2024/03/14 04:29:32;;;;;;;5.18;3.25;;;9.70;99.90;;;;;;4982208;28;20081;-78
2024/03/14 04:31:57;;;;;;;6.22;3.88;;;9.70;99.90;;;;;;4973303;28;20065;-77
2024/03/14 04:34:26;;;;;;;7.00;4.00;;;9.70;99.90;;;;;;4997624;28;20147;-78
2024/03/14 04:36:53;;;;;;;4.25;3.67;;;9.60;99.90;;;;;;4977575;28;20030;-78
2024/03/14 04:39:23;;;;;;;6.80;3.75;;;9.60;99.90;;;;;;4983293;28;20104;-77
2024/03/14 04:41:52;;;;;;;8.90;5.07;;;9.70;99.90;;;;;;4979545;28;20366;-78
2024/03/14 04:44:18;;;;;;;5.10;4.03;;;9.60;99.90;;;;;;4982510;28;20122;-77
2024/03/14 04:46:44;;;;;;;5.55;4.05;;;9.60;99.90;;;;;;4986305;28;20081;-78
2024/03/14 04:49:10;;;;;;;8.10;3.85;;;9.60;99.90;;;;;;4983091;28;20034;-78
2024/03/14 04:51:36;;;;;;;6.70;4.57;;;9.60;99.90;;;;;;4984625;28;20096;-78
2024/03/14 04:54:02;;;;;;;5.78;4.10;;;9.60;99.90;;;;;;4981179;28;20710;-78
2024/03/14 04:56:30;;;;;;;5.28;4.20;;;9.80;99.90;;;;;;4979207;28;20443;-77
2024/03/14 04:58:59;;;;;;;8.07;3.30;;;9.70;99.90;;;;;;4986666;28;20617;-77
2024/03/14 05:01:25;;;;;;;10.77;4.60;;;9.70;99.90;;;;;;4967573;28;20046;-77
2024/03/14 05:03:51;;;;;;;11.52;4.85;;;9.60;99.90;;;;;;4967638;28;20069;-78
2024/03/14 05:06:17;;;;;;;6.45;4.47;;;9.60;99.90;;;;;;4966655;28;20391;-77
2024/03/14 05:08:43;;;;;;;8.70;5.05;;;9.50;99.90;;;;;;4968032;28;20034;-78
2024/03/14 05:11:09;;;;;;;8.48;5.25;;;9.50;99.90;;;;;;4965123;28;20041;-78
2024/03/14 05:13:34;;;;;;;6.68;4.30;;;9.50;99.90;;;;;;4965021;28;20035;-78
2024/03/14 05:16:00;;;;;;;6.30;3.85;;;9.40;99.90;;;;;;4967533;28;20046;-78
2024/03/14 05:18:25;;;;;;;8.65;5.43;;;9.40;99.90;;;;;;4973104;28;20118;-78
2024/03/14 05:20:51;;;;;;;8.15;4.93;;;9.40;99.90;;;;;;4992532;28;20045;-78
2024/03/14 05:23:16;;;;;;;9.00;4.80;;;9.30;99.90;;;;;;4987228;28;20133;-78
2024/03/14 05:25:42;;;;;;;7.80;5.18;;;9.30;99.90;;;;;;5004999;28;20045;-77
2024/03/14 05:28:08;;;;;;;5.97;4.03;;;9.30;99.90;;;;;;5007080;28;20041;-77
2024/03/14 05:30:33;;;;;;;6.70;4.50;;;9.20;99.90;;;;;;4973929;28;20034;-79
2024/03/14 05:32:59;;;;;;;6.95;4.95;;;9.10;99.90;;;;;;4985112;28;20040;-77
2024/03/14 05:35:24;;;;;;;9.77;4.97;;;9.00;99.90;;;;;;4984506;28;20117;-78
2024/03/14 05:37:52;;;;;;;5.40;4.40;;;9.10;99.90;;;;;;4968470;28;20113;-78
2024/03/14 05:40:18;;;;;;;7.70;5.32;;;9.00;99.90;;;;;;4970487;28;20045;-77
2024/03/14 05:42:43;;;;;;;11.20;6.40;;;8.90;99.90;;;;;;4983396;28;20491;-77
2024/03/14 05:45:09;;;;;;;8.93;5.95;;;9.00;99.90;;;;;;4988822;28;20488;-77
2024/03/14 05:47:35;;;;;;;7.63;5.55;;;8.90;99.90;;;;;;4985103;28;20034;-77
2024/03/14 05:50:06;;;;;;;7.45;5.30;;;8.90;99.90;;;;;;4954217;28;20058;-77
2024/03/14 05:52:35;;;;;;;9.93;6.68;;;8.90;99.90;;;;;;4985211;28;20034;-78
2024/03/14 05:55:01;;;;;;;7.03;5.75;;;8.90;99.90;;;;;;4970391;28;20038;-79
2024/03/14 05:57:28;;;;;;;12.05;6.38;;;8.90;99.90;;;;;;4965885;28;20560;-77
2024/03/14 05:59:54;;;;;;;6.30;4.80;;;8.80;99.90;;;;;;4984349;28;20042;-78
2024/03/14 06:02:19;;;;;;;6.68;4.60;;;8.70;99.90;;;;;;4960288;28;20035;-78
2024/03/14 06:04:45;;;;;;;4.97;3.67;;;8.80;99.90;;;;;;4964913;28;20110;-78
2024/03/14 06:07:11;;;;;;;9.65;5.05;;;8.70;99.90;;;;;;4968582;28;20061;-78
2024/03/14 06:09:41;;;;;;;6.78;4.88;;;8.70;99.90;;;;;;4950562;28;20030;-78
2024/03/14 06:12:10;;;;;;;11.18;5.78;;;8.70;99.90;;;;;;4981488;28;20507;-78
2024/03/14 06:14:36;;;;;;;9.80;7.10;;;8.80;99.90;;;;;;4983060;28;20030;-78
2024/03/14 06:17:03;;;;;;;10.02;6.15;;;8.70;99.90;;;;;;4952791;28;20097;-77
2024/03/14 06:19:28;;;;;;;11.43;6.55;;;8.70;99.90;;;;;;4953614;28;20038;-78
2024/03/14 06:21:56;;;;;;;8.55;5.85;;;8.70;99.90;;;;;;4966502;28;20042;-78
2024/03/14 06:24:22;;;;;;;8.85;7.00;;;8.70;99.90;;;;;;4968205;28;20038;-78
2024/03/14 06:26:48;;;;;;;9.65;4.97;;;8.70;99.90;;;;;;4982825;28;20117;-78
2024/03/14 06:29:15;;;;;;;7.88;6.38;;;8.70;99.90;;;;;;4967856;28;20617;-78
2024/03/14 06:31:44;;;;;;;12.63;5.75;;;8.70;99.90;;;;;;4965410;28;20150;-78
2024/03/14 06:34:09;;;;;;;15.77;7.97;;;8.70;99.90;;;;;;4986077;28;20124;-78
2024/03/14 06:36:36;;;;;;;8.63;5.35;;;8.60;99.90;;;;;;4954774;28;20038;-79
2024/03/14 06:39:06;;;;;;;9.73;5.35;;;8.60;99.90;;;;;;4985709;28;20511;-78
2024/03/14 06:41:32;;;;;;;11.48;6.10;;;8.70;99.90;;;;;;4966672;28;20034;-77
2024/03/14 06:43:58;;;;;;;9.05;5.97;;;8.70;99.90;;;;;;4964263;28;20097;-77
2024/03/14 06:46:26;;;;;;;9.48;5.82;;;8.70;99.90;;;;;;4987369;28;20476;-77
2024/03/14 06:48:53;;;;;;;8.85;5.68;;;8.80;99.90;;;;;;4966891;28;20104;-76
2024/03/14 06:51:19;;;;;;;11.38;7.80;;;8.70;99.90;;;;;;4960655;28;20046;-77
2024/03/14 06:53:46;;;;;;;10.93;6.65;;;8.80;99.90;;;;;;4970319;28;20081;-76
2024/03/14 06:56:15;;;;;;;8.65;5.35;;;8.80;99.90;;;;;;4966637;28;20023;-77
2024/03/14 06:58:40;;;;;;;12.32;6.82;;;8.80;99.90;;;;;;4972058;28;20443;-77
2024/03/14 07:01:08;;;;;;;9.90;5.93;;;8.90;99.90;;;;;;4965647;28;20034;-76
2024/03/14 07:03:33;;;;;;;12.25;6.50;;;8.80;99.90;;;;;;4985020;28;20696;-77
2024/03/14 07:05:59;;;;;;;9.73;5.95;;;8.90;99.90;;;;;;4965071;28;20125;-77
2024/03/14 07:08:28;;;;;;;12.18;5.32;;;9.00;99.90;;;;;;4983597;28;20637;-77
2024/03/14 07:10:54;;;;;;;11.07;6.00;;;9.10;99.90;;;;;;4967474;28;20642;-76
2024/03/14 07:13:19;;;;;;;10.70;6.97;;;9.10;99.90;;;;;;4968878;28;20034;-76
2024/03/14 07:15:47;;;;;;;6.95;5.72;;;9.10;99.90;;;;;;4980987;28;20058;-77
2024/03/14 07:18:12;;;;;;;14.70;7.40;;;9.30;99.90;;;;;;4988551;28;20040;-77
2024/03/14 07:20:42;;;;;;;12.50;5.75;;;9.30;99.90;;;;;;4985000;28;20038;-77
2024/03/14 07:23:08;;;;;;;16.13;8.02;;;9.40;99.90;;;;;;4969383;28;20093;-77
2024/03/14 07:25:34;;;;;;;9.15;6.63;;;9.50;99.90;;;;;;4969908;28;20030;-77
2024/03/14 07:28:00;;;;;;;7.50;5.85;;;9.60;99.90;;;;;;4978097;28;20911;-77
2024/03/14 07:30:26;;;;;;;9.50;6.70;;;9.80;99.90;;;;;;4982111;28;20125;-77
2024/03/14 07:32:52;;;;;;;8.57;5.30;;;10.00;99.90;;;;;;4969561;28;20117;-77
2024/03/14 07:35:18;;;;;;;7.90;5.93;;;10.10;99.90;;;;;;4953048;28;20029;-77
2024/03/14 07:37:45;;;;;;;7.10;5.72;;;10.30;99.90;;;;;;4989663;28;20570;-77
2024/03/14 07:40:11;;;;;;;9.35;5.30;;;10.30;99.90;;;;;;4966165;28;20494;-77
2024/03/14 07:42:40;;;;;;;8.57;5.80;;;10.50;99.90;;;;;;4981104;28;20026;-77
2024/03/14 07:45:07;;;;;;;8.23;4.82;;;10.60;99.90;;;;;;4982490;28;20042;-77
2024/03/14 07:47:35;;;;;;;8.23;5.03;;;10.80;99.90;;;;;;4968383;28;20145;-77
2024/03/14 07:50:01;;;;;;;8.98;5.03;;;10.90;99.90;;;;;;4972697;28;20496;-77
2024/03/14 07:52:26;;;;;;;9.25;4.90;;;11.00;99.90;;;;;;4983176;28;20048;-77
2024/03/14 07:54:53;;;;;;;6.50;4.25;;;11.20;99.90;;;;;;4982070;28;20113;-78
2024/03/14 07:57:20;;;;;;;4.38;3.55;;;11.30;99.90;;;;;;4983761;28;20042;-77
2024/03/14 07:59:46;;;;;;;6.07;4.18;;;11.40;99.90;;;;;;4967798;28;20034;-77
2024/03/14 08:02:12;;;;;;;6.03;3.70;;;11.50;99.90;;;;;;4949613;28;20049;-77
2024/03/14 08:04:44;;;;;;;6.78;4.00;;;11.60;99.90;;;;;;4983411;28;20567;-77
2024/03/14 08:07:13;;;;;;;5.13;3.72;;;11.70;99.90;;;;;;4960080;28;20037;-77
2024/03/14 08:09:42;;;;;;;3.38;3.08;;;11.80;99.90;;;;;;4969123;28;20061;-77
2024/03/14 08:12:07;;;;;;;5.88;3.60;;;12.00;99.90;;;;;;4970814;28;20062;-77
2024/03/14 08:14:36;;;;;;;3.33;3.03;;;12.10;99.90;;;;;;4969226;28;20488;-78
2024/03/14 08:17:06;;;;;;;4.05;3.63;;;12.20;99.90;;;;;;4982203;28;20062;-77
2024/03/14 08:19:34;;;;;;;4.85;3.85;;;12.30;99.90;;;;;;4979212;28;20041;-77
2024/03/14 08:22:00;;;;;;;5.50;3.30;;;12.30;99.90;;;;;;4981400;28;20646;-77
2024/03/14 08:24:39;;;;;;;8.00;3.47;;;12.40;99.90;;;;;;4968112;28;20122;-77
2024/03/14 08:27:05;;;;;;;6.00;3.70;;;12.50;99.90;;;;;;4977594;28;20601;-77
2024/03/14 08:29:31;;;;;;;5.97;3.25;;;12.80;99.90;;;;;;4965852;28;20037;-78
2024/03/14 08:31:59;;;;;;;8.13;3.92;;;13.00;99.90;;;;;;4957458;28;21947;-77
2024/03/14 08:34:28;;;;;;;7.28;3.55;;;13.10;99.90;;;;;;5000522;28;20030;-77
2024/03/14 08:36:53;;;;;;;5.20;4.00;;;13.30;99.90;;;;;;4980235;28;20117;-77
2024/03/14 08:39:19;;;;;;;4.20;3.38;;;13.40;99.90;;;;;;4985577;28;20132;-77
2024/03/14 08:41:45;;;;;;;3.85;2.80;;;13.40;99.90;;;;;;4970842;28;20041;-77
2024/03/14 08:44:11;;;;;;;7.07;3.05;;;13.40;99.90;;;;;;4967886;28;20038;-78
2024/03/14 08:46:37;;;;;;;4.70;3.28;;;13.60;99.90;;;;;;4961777;28;20031;-77
2024/03/14 08:49:02;;;;;;;4.72;2.80;;;13.70;99.90;;;;;;4966202;28;20034;-77
2024/03/14 08:51:28;;;;;;;4.35;3.00;;;13.90;99.90;;;;;;4984143;28;20049;-77
2024/03/14 08:56:37;;;;;;;6.70;3.25;;;14.00;99.90;;;;;;5003236;28;20037;-77
2024/03/14 08:59:03;;;;;;;5.53;2.78;;;13.90;99.90;;;;;;4969746;28;20038;-77
2024/03/14 09:01:29;;;;;;;6.18;3.42;;;14.20;99.90;;;;;;4974039;28;20117;-77
2024/03/14 09:03:57;;;;;;;4.45;2.88;;;14.40;99.90;;;;;;4989786;28;20037;-77
2024/03/14 09:06:28;;;;;;;5.28;3.30;;;14.60;99.90;;;;;;4954918;28;20034;-77
2024/03/14 09:08:58;;;;;;;5.18;3.08;;;14.70;99.90;;;;;;4967439;28;20475;-77
2024/03/14 09:11:27;;;;;;;5.53;3.10;;;14.80;99.90;;;;;;4965680;28;20081;-77
2024/03/14 09:13:53;;;;;;;5.78;3.17;;;15.10;99.90;;;;;;4980571;28;20061;-77
2024/03/14 09:16:19;;;;;;;6.80;2.55;;;15.20;99.90;;;;;;4988290;28;20019;-77
2024/03/14 09:18:45;;;;;;;3.63;2.45;;;15.30;99.90;;;;;;4971193;28;20030;-77
2024/03/14 09:21:11;;;;;;;3.13;2.55;;;15.40;99.90;;;;;;4964526;28;20046;-77
2024/03/14 09:23:39;;;;;;;4.10;2.83;;;15.50;99.90;;;;;;4965391;28;20391;-78
2024/03/14 09:26:09;;;;;;;4.38;2.47;;;15.50;99.90;;;;;;4971134;28;20033;-77
2024/03/14 09:28:35;;;;;;;4.43;2.80;;;15.50;99.90;;;;;;4976556;28;20049;-77
2024/03/14 09:31:01;;;;;;;3.78;2.53;;;15.40;99.90;;;;;;4951418;28;20035;-77
2024/03/14 09:33:27;;;;;;;4.00;2.88;;;15.40;99.90;;;;;;4989746;28;20044;-77
2024/03/14 09:35:53;;;;;;;4.07;2.70;;;15.60;99.90;;;;;;5005316;28;20041;-77
2024/03/14 09:38:18;;;;;;;3.85;2.50;;;15.60;99.90;;;;;;4988710;28;20069;-77
2024/03/14 09:40:44;;;;;;;4.72;3.15;;;15.50;99.90;;;;;;4972964;28;20053;-77
2024/03/14 09:43:13;;;;;;;3.83;2.78;;;15.70;99.90;;;;;;4981626;28;20142;-78
2024/03/14 09:45:41;;;;;;;5.82;2.67;;;15.90;99.90;;;;;;4986116;28;20113;-78
2024/03/14 09:48:07;;;;;;;3.97;2.60;;;16.00;99.90;;;;;;4986607;28;20523;-78
2024/03/14 09:50:35;;;;;;;5.20;2.97;;;16.10;99.90;;;;;;4968784;28;20531;-78
2024/03/14 09:53:02;;;;;;;3.85;2.58;;;16.30;99.90;;;;;;4967763;28;20046;-78
2024/03/14 09:55:30;;;;;;;4.78;2.72;;;16.50;99.90;;;;;;4971091;28;20484;-77
2024/03/14 09:58:04;;;;;;;4.55;2.88;;;16.50;99.90;;;;;;4968582;28;20049;-77
2024/03/14 10:00:30;;;;;;;2.30;1.90;;;16.70;99.90;;;;;;4991318;28;21097;-77
2024/03/14 10:02:55;;;;;;;2.50;2.10;;;16.70;99.90;;;;;;4968228;28;20042;-77
2024/03/14 10:05:21;;;;;;;9.02;2.75;;;16.90;99.90;;;;;;4964178;28;20050;-77
2024/03/14 10:07:50;;;;;;;4.18;2.97;;;17.00;99.90;;;;;;4980887;28;20061;-77
2024/03/14 10:10:15;;;;;;;2.90;2.60;;;17.10;99.90;;;;;;4972674;28;20114;-77
2024/03/14 10:12:51;;;;;;;3.17;2.55;;;17.20;99.90;;;;;;4973497;28;20037;-77
2024/03/14 10:15:18;;;;;;;3.50;2.50;;;17.40;99.90;;;;;;4967221;28;20034;-77
2024/03/14 10:17:45;;;;;;;2.83;2.13;;;17.10;99.90;;;;;;4973928;28;20042;-77
2024/03/14 10:20:15;;;;;;;4.38;3.22;;;17.50;99.90;;;;;;4965360;28;20377;-77
2024/03/14 10:22:43;;;;;;;3.47;2.50;;;17.70;99.90;;;;;;4983772;28;20030;-77
2024/03/14 10:25:16;;;;;;;3.80;2.95;;;17.70;99.90;;;;;;4984382;28;20044;-77
2024/03/14 10:27:48;;;;;;;3.15;2.63;;;17.70;99.90;;;;;;4969820;28;20116;-77
2024/03/14 10:30:18;;;;;;;4.22;2.83;;;18.00;99.90;;;;;;4974563;28;20030;-78
2024/03/14 10:32:43;;;;;;;3.42;2.72;;;18.10;99.90;;;;;;4967510;28;20141;-77
2024/03/14 10:35:12;;;;;;;4.22;2.88;;;18.10;99.90;;;;;;4966817;28;20053;-77
2024/03/14 10:37:43;;;;;;;5.13;2.60;;;18.10;99.90;;;;;;4967810;28;20085;-77
2024/03/14 10:40:19;;;;;;;1.35;1.10;;;17.90;99.90;;;;;;4953158;28;20096;-78
2024/03/14 10:42:50;;;;;;;;;;;18.10;99.90;;;;;;4968802;28;20500;-78
2024/03/14 10:45:16;;;;;;;2.83;2.58;;;17.90;99.90;;;;;;4966406;28;19944;-78
2024/03/14 10:47:42;;;;;;;2.72;1.85;;;17.90;99.90;;;;;;4980636;28;20121;-78
2024/03/14 10:50:16;;;;;;;3.65;2.40;;;18.00;99.90;;;;;;4967068;28;20034;-78
2024/03/14 10:52:54;;;;;;;2.10;1.90;;;18.20;99.90;;;;;;4962735;28;20046;-78
2024/03/14 10:55:25;;;;;;;2.95;1.90;;;17.90;99.90;;;;;;4974337;28;20780;-78
2024/03/14 10:57:51;;;;;;;3.63;2.35;;;18.20;99.90;;;;;;4966623;28;20027;-77
2024/03/14 11:00:17;;;;;;;4.05;2.60;;;18.00;99.90;;;;;;4980237;28;20030;-78
2024/03/14 11:02:50;;;;;;;3.45;2.25;;;18.20;99.90;;;;;;4967618;28;20050;-76
2024/03/14 11:05:18;;;;;;;1.70;1.50;;;18.30;99.90;;;;;;4982877;28;20105;-77
2024/03/14 11:07:45;;;;;;;4.00;1.60;;;18.40;99.90;;;;;;4984545;28;20034;-77
2024/03/14 11:10:16;;;;;;;2.13;1.50;;;18.40;99.90;;;;;;4953230;28;20562;-77
2024/03/14 11:12:42;;;;;;;4.20;1.60;;;18.40;99.90;;;;;;4950567;28;20517;-77
2024/03/14 11:15:09;;;;;;;2.88;1.77;;;18.60;99.90;;;;;;4987235;28;20137;-77
2024/03/14 11:17:34;;;;;;;3.08;1.67;;;18.70;99.90;;;;;;4984128;28;20680;-77
2024/03/14 11:20:06;;;;;;;2.88;1.27;;;18.80;99.90;;;;;;4979446;28;20143;-77
2024/03/14 11:22:32;;;;;;;3.05;2.20;;;19.00;99.90;;;;;;4973841;28;20046;-77
2024/03/14 11:25:03;;;;;;;3.40;1.20;;;19.00;99.90;;;;;;4972834;28;20516;-77
2024/03/14 11:27:29;;;;;;;2.50;2.08;;;19.10;99.90;;;;;;4969260;28;20034;-77
2024/03/14 11:29:54;;;;;;;2.13;1.80;;;19.20;99.90;;;;;;4984761;28;20539;-77
2024/03/14 11:32:23;;;;;;;2.53;2.17;;;19.30;99.90;;;;;;4963508;28;20458;-77
2024/03/14 11:34:50;;;;;;;2.30;1.85;;;19.90;99.90;;;;;;4967020;28;20034;-80
2024/03/14 11:37:26;;;;;;;2.28;1.40;;;19.90;99.90;;;;;;4515366;28;10001279;-80
2024/03/14 11:39:53;;;;;;;5.28;1.73;;;19.80;99.90;;;;;;4981382;28;20263;-80
2024/03/14 11:42:21;;;;;;;2.65;1.75;;;19.70;99.90;;;;;;4972847;28;20048;-79
2024/03/14 11:44:49;;;;;;;2.08;1.25;;;20.10;99.90;;;;;;4983402;28;20496;-80
2024/03/14 11:47:41;;;;;;;3.50;2.00;;;20.10;99.90;;;;;;5000596;28;20042;-79
2024/03/14 11:50:08;;;;;;;3.25;1.55;;;20.10;99.90;;;;;;4958407;28;20150;-80
2024/03/14 11:52:35;;;;;;;3.78;2.35;;;20.50;99.90;;;;;;4945363;28;20542;-80
2024/03/14 11:55:06;;;;;;;2.85;1.88;;;20.30;99.90;;;;;;4961873;28;20054;-80
2024/03/14 11:57:33;;;;;;;3.08;1.85;;;20.30;99.90;;;;;;4969460;28;20392;-80
2024/03/14 12:00:08;;;;;;;2.42;1.60;;;20.70;99.90;;;;;;4978387;28;20030;-80
2024/03/14 12:02:34;;;;;;;2.88;1.90;;;20.70;99.90;;;;;;4953292;28;20039;-80
2024/03/14 12:05:03;;;;;;;3.92;2.20;;;20.90;99.90;;;;;;4967953;28;20392;-80
2024/03/14 12:07:30;;;;;;;2.72;2.10;;;21.10;99.90;;;;;;4966354;28;20054;-80
2024/03/14 12:09:57;;;;;;;3.00;1.75;;;20.80;99.90;;;;;;4949709;28;20045;-80
2024/03/14 12:12:23;;;;;;;3.55;1.70;;;20.40;99.90;;;;;;4969500;28;20028;-80
2024/03/14 12:14:58;;;;;;;4.50;2.03;;;20.80;99.90;;;;;;4960874;28;20040;-80
2024/03/14 12:17:24;;;;;;;1.40;1.30;;;21.10;99.90;;;;;;4963436;28;20114;-80
2024/03/14 12:19:53;;;;;;;4.85;1.77;;;21.30;99.90;;;;;;4944705;28;20524;-80
2024/03/14 12:22:21;;;;;;;2.58;1.65;;;21.00;99.90;;;;;;4987343;28;20042;-80
2024/03/14 12:24:57;;;;;;;3.42;1.52;;;20.90;99.90;;;;;;4980302;28;20089;-80
2024/03/14 12:27:22;;;;;;;;;;;21.00;99.90;;;;;;4973129;28;20054;-80
2024/03/14 12:29:48;;;;;;;2.75;1.77;;;21.10;99.90;;;;;;4979430;28;19948;-80
2024/03/14 12:32:16;;;;;;;2.08;1.40;;;21.40;99.90;;;;;;4982594;28;20033;-80
2024/03/14 12:34:42;;;;;;;4.07;1.42;;;21.30;99.90;;;;;;4971827;28;20031;-80
2024/03/14 12:37:13;;;;;;;1.40;1.30;;;21.40;99.90;;;;;;4949954;28;20535;-80
2024/03/14 12:39:47;;;;;;;4.13;1.30;;;21.40;99.90;;;;;;4975385;28;20039;-80
2024/03/14 12:42:13;;;;;;;1.60;0.98;;;21.70;99.90;;;;;;4968400;28;20034;-80
2024/03/14 12:44:38;;;;;;;2.63;1.42;;;21.40;99.90;;;;;;4981349;28;20042;-80
2024/03/14 12:47:04;;;;;;;1.70;1.35;;;21.60;99.90;;;;;;4969540;28;20037;-81
2024/03/14 12:49:31;;;;;;;2.83;1.30;;;21.30;99.90;;;;;;4987234;28;20070;-81
2024/03/14 12:51:57;;;;;;;3.08;1.15;;;21.60;99.90;;;;;;4972957;28;20467;-81